createdAt,value
2019-02-15T00:00:51.212Z,0.00
2019-02-15T00:01:51.243Z,0.00
2019-02-15T00:02:51.255Z,0.00
2019-02-15T00:03:51.296Z,0.00
2019-02-15T00:04:51.331Z,0.00
2019-02-15T00:05:51.398Z,0.00
2019-02-15T00:06:51.406Z,0.00
2019-02-15T00:07:51.444Z,0.00
2019-02-15T00:08:51.493Z,0.00
2019-02-15T00:09:51.522Z,0.00
2019-02-15T00:10:51.580Z,0.00
2019-02-15T00:11:51.601Z,0.00
2019-02-15T00:12:51.685Z,0.00
2019-02-15T00:13:51.682Z,0.00
2019-02-15T00:14:51.712Z,0.00
2019-02-15T00:15:51.766Z,0.00
2019-02-15T00:16:51.790Z,0.00
2019-02-15T00:17:51.835Z,0.00
2019-02-15T00:18:51.868Z,0.00
2019-02-15T00:19:51.961Z,0.00
2019-02-15T00:20:51.972Z,0.00
2019-02-15T00:21:51.979Z,0.00
2019-02-15T00:22:52.032Z,0.00
2019-02-15T00:23:52.065Z,0.00
2019-02-15T00:24:52.097Z,0.00
2019-02-15T00:25:52.173Z,0.00
2019-02-15T00:26:52.238Z,0.00
2019-02-15T00:27:52.222Z,0.00
2019-02-15T00:28:52.250Z,0.00
2019-02-15T00:29:52.294Z,0.00
2019-02-15T00:30:52.349Z,0.00
2019-02-15T00:31:52.384Z,0.00
2019-02-15T00:32:52.405Z,0.00
2019-02-15T00:33:52.486Z,0.00
2019-02-15T00:34:52.482Z,0.00
2019-02-15T00:35:52.528Z,0.00
2019-02-15T00:36:52.574Z,0.00
2019-02-15T00:37:52.611Z,0.00
2019-02-15T00:38:52.641Z,0.00
2019-02-15T00:39:52.670Z,0.00
2019-02-15T00:40:52.711Z,0.00
2019-02-15T00:41:52.765Z,0.00
2019-02-15T00:42:52.794Z,0.00
2019-02-15T00:43:52.825Z,0.00
2019-02-15T00:44:52.862Z,0.00
2019-02-15T00:45:52.902Z,0.00
2019-02-15T00:46:52.969Z,0.00
2019-02-15T00:47:52.975Z,0.00
2019-02-15T00:48:53.780Z,0.00
2019-02-15T00:49:53.088Z,0.00
2019-02-15T00:50:53.092Z,0.00
2019-02-15T00:51:53.158Z,0.00
2019-02-15T00:52:53.171Z,0.00
2019-02-15T00:53:53.207Z,0.00
2019-02-15T00:54:53.248Z,0.00
2019-02-15T00:55:53.284Z,0.00
2019-02-15T00:56:53.457Z,0.00
2019-02-15T00:57:53.378Z,0.00
2019-02-15T00:58:53.407Z,0.00
2019-02-15T00:59:53.440Z,0.00
2019-02-15T01:00:53.473Z,0.00
2019-02-15T01:01:53.527Z,0.00
2019-02-15T01:02:53.584Z,0.00
2019-02-15T01:03:53.588Z,0.00
2019-02-15T01:04:53.635Z,0.00
2019-02-15T01:05:53.668Z,0.00
2019-02-15T01:06:53.702Z,0.00
2019-02-15T01:07:53.768Z,0.00
2019-02-15T01:08:53.778Z,0.00
2019-02-15T01:09:53.816Z,0.00
2019-02-15T01:10:53.855Z,0.00
2019-02-15T01:11:53.913Z,0.00
2019-02-15T01:12:53.952Z,0.00
2019-02-15T01:13:53.969Z,0.00
2019-02-15T01:14:54.010Z,0.00
2019-02-15T01:15:54.042Z,0.00
2019-02-15T01:16:54.083Z,0.00
2019-02-15T01:17:54.156Z,0.00
2019-02-15T01:18:54.165Z,0.00
2019-02-15T01:19:54.195Z,0.00
2019-02-15T01:20:54.247Z,0.00
2019-02-15T01:21:54.278Z,0.00
2019-02-15T01:22:54.335Z,0.00
2019-02-15T01:23:54.370Z,0.00
2019-02-15T01:24:54.524Z,0.00
2019-02-15T01:25:54.435Z,0.00
2019-02-15T01:26:54.463Z,0.00
2019-02-15T01:27:54.502Z,0.00
2019-02-15T01:28:54.570Z,0.00
2019-02-15T01:29:54.580Z,0.00
2019-02-15T01:30:54.619Z,0.00
2019-02-15T01:31:54.665Z,0.00
2019-02-15T01:32:54.715Z,0.00
2019-02-15T01:33:54.757Z,0.00
2019-02-15T01:34:54.780Z,0.00
2019-02-15T01:35:54.807Z,0.00
2019-02-15T01:36:54.846Z,0.00
2019-02-15T01:37:54.890Z,0.00
2019-02-15T01:38:55.004Z,0.00
2019-02-15T01:39:54.962Z,0.00
2019-02-15T01:40:54.995Z,0.00
2019-02-15T01:41:55.035Z,0.00
2019-02-15T01:42:55.072Z,0.00
2019-02-15T01:43:55.130Z,0.00
2019-02-15T01:44:55.154Z,0.00
2019-02-15T01:45:55.191Z,0.00
2019-02-15T01:46:55.237Z,0.00
2019-02-15T01:47:55.263Z,0.00
2019-02-15T01:48:55.326Z,0.00
2019-02-15T01:49:55.339Z,0.00
2019-02-15T01:50:55.379Z,0.00
2019-02-15T01:51:55.416Z,0.00
2019-02-15T01:52:55.457Z,0.00
2019-02-15T01:53:55.521Z,0.00
2019-02-15T01:54:55.529Z,0.00
2019-02-15T01:55:55.571Z,0.00
2019-02-15T01:56:55.606Z,0.00
2019-02-15T01:57:55.703Z,0.00
2019-02-15T01:58:55.706Z,0.00
2019-02-15T01:59:55.737Z,0.00
2019-02-15T02:00:55.767Z,0.00
2019-02-15T02:01:55.795Z,0.00
2019-02-15T02:02:55.833Z,0.00
2019-02-15T02:03:55.870Z,0.00
2019-02-15T02:04:56.011Z,0.00
2019-02-15T02:05:55.946Z,0.00
2019-02-15T02:06:55.984Z,0.00
2019-02-15T02:07:56.020Z,0.00
2019-02-15T02:08:56.062Z,0.00
2019-02-15T02:09:56.145Z,0.00
2019-02-15T02:10:56.135Z,0.00
2019-02-15T02:11:56.291Z,0.00
2019-02-15T02:12:56.212Z,0.00
2019-02-15T02:13:56.251Z,0.00
2019-02-15T02:14:56.302Z,0.00
2019-02-15T02:15:56.326Z,0.00
2019-02-15T02:16:56.364Z,0.00
2019-02-15T02:17:56.402Z,0.00
2019-02-15T02:18:56.547Z,0.00
2019-02-15T02:19:56.496Z,0.00
2019-02-15T02:20:56.513Z,0.00
2019-02-15T02:21:56.551Z,0.00
2019-02-15T02:22:56.599Z,0.00
2019-02-15T02:23:56.631Z,0.00
2019-02-15T02:24:56.684Z,0.00
2019-02-15T02:25:56.731Z,0.00
2019-02-15T02:26:56.745Z,0.00
2019-02-15T02:27:56.779Z,0.00
2019-02-15T02:28:56.821Z,0.00
2019-02-15T02:29:56.856Z,0.00
2019-02-15T02:30:56.920Z,0.00
2019-02-15T02:31:56.944Z,0.00
2019-02-15T02:32:56.968Z,0.00
2019-02-15T02:33:57.004Z,0.00
2019-02-15T02:34:57.045Z,0.00
2019-02-15T02:35:57.110Z,0.00
2019-02-15T02:36:57.151Z,0.00
2019-02-15T02:37:57.165Z,0.00
2019-02-15T02:38:57.199Z,0.00
2019-02-15T02:39:57.259Z,0.00
2019-02-15T02:40:57.291Z,0.00
2019-02-15T02:41:57.308Z,0.00
2019-02-15T02:42:57.349Z,0.00
2019-02-15T02:43:59.668Z,0.00
2019-02-15T02:44:57.423Z,0.00
2019-02-15T02:45:57.511Z,0.00
2019-02-15T02:46:57.499Z,0.00
2019-02-15T02:47:57.542Z,0.00
2019-02-15T02:48:57.578Z,0.00
2019-02-15T02:49:57.646Z,0.00
2019-02-15T02:50:57.685Z,0.00
2019-02-15T02:51:57.764Z,0.00
2019-02-15T02:52:57.723Z,0.00
2019-02-15T02:53:57.761Z,0.00
2019-02-15T02:54:57.803Z,0.00
2019-02-15T02:55:57.861Z,0.00
2019-02-15T02:56:57.901Z,0.00
2019-02-15T02:57:57.911Z,0.00
2019-02-15T02:58:57.952Z,0.00
2019-02-15T02:59:57.986Z,0.00
2019-02-15T03:00:58.022Z,0.00
2019-02-15T03:01:58.080Z,0.00
2019-02-15T03:02:58.100Z,0.00
2019-02-15T03:03:58.140Z,0.00
2019-02-15T03:04:58.174Z,0.00
2019-02-15T03:05:58.216Z,0.00
2019-02-15T03:06:58.273Z,0.00
2019-02-15T03:07:58.284Z,0.00
2019-02-15T03:08:58.323Z,0.00
2019-02-15T03:09:58.363Z,0.00
2019-02-15T03:10:58.419Z,0.00
2019-02-15T03:11:58.485Z,0.00
2019-02-15T03:12:58.472Z,0.00
2019-02-15T03:13:58.525Z,0.00
2019-02-15T03:14:58.558Z,0.00
2019-02-15T03:15:58.589Z,0.00
2019-02-15T03:16:58.644Z,0.00
2019-02-15T03:17:58.682Z,0.00
2019-02-15T03:18:58.705Z,0.00
2019-02-15T03:19:58.741Z,0.00
2019-02-15T03:20:58.775Z,0.00
2019-02-15T03:21:58.815Z,0.00
2019-02-15T03:22:58.868Z,0.00
2019-02-15T03:23:58.897Z,0.00
2019-02-15T03:24:58.925Z,0.00
2019-02-15T03:25:58.967Z,0.00
2019-02-15T03:26:59.003Z,0.00
2019-02-15T03:27:59.055Z,0.00
2019-02-15T03:28:59.080Z,0.00
2019-02-15T03:29:59.138Z,0.00
2019-02-15T03:30:59.173Z,0.00
2019-02-15T03:31:59.189Z,0.00
2019-02-15T03:32:59.249Z,0.00
2019-02-15T03:33:59.286Z,0.00
2019-02-15T03:34:59.314Z,0.00
2019-02-15T03:35:59.337Z,0.00
2019-02-15T03:36:59.437Z,0.00
2019-02-15T03:37:59.433Z,0.00
2019-02-15T03:38:59.452Z,0.00
2019-02-15T03:39:59.490Z,0.00
2019-02-15T03:40:59.531Z,0.00
2019-02-15T03:41:59.570Z,0.00
2019-02-15T03:42:59.626Z,0.00
2019-02-15T03:43:59.660Z,0.00
2019-02-15T03:44:59.713Z,0.00
2019-02-15T03:45:59.714Z,0.00
2019-02-15T03:46:59.762Z,0.00
2019-02-15T03:47:59.795Z,0.00
2019-02-15T03:48:59.856Z,0.00
2019-02-15T03:49:59.873Z,0.00
2019-02-15T03:50:59.902Z,0.00
2019-02-15T03:51:59.940Z,0.00
2019-02-15T03:52:59.974Z,0.00
2019-02-15T03:54:00.168Z,0.00
2019-02-15T03:55:00.060Z,0.00
2019-02-15T03:56:00.099Z,0.00
2019-02-15T03:57:00.127Z,0.00
2019-02-15T03:58:00.166Z,0.00
2019-02-15T03:59:00.292Z,0.00
2019-02-15T04:00:00.396Z,0.00
2019-02-15T04:01:00.284Z,0.00
2019-02-15T04:02:00.317Z,0.00
2019-02-15T04:03:00.356Z,0.00
2019-02-15T04:04:00.420Z,0.00
2019-02-15T04:05:00.433Z,0.00
2019-02-15T04:06:00.467Z,0.00
2019-02-15T04:07:00.511Z,0.00
2019-02-15T04:08:00.541Z,0.00
2019-02-15T04:09:00.604Z,0.00
2019-02-15T04:10:00.628Z,0.00
2019-02-15T04:11:00.655Z,0.00
2019-02-15T04:12:00.696Z,0.00
2019-02-15T04:13:00.728Z,0.00
2019-02-15T04:14:00.800Z,0.00
2019-02-15T04:15:00.802Z,0.00
2019-02-15T04:16:00.846Z,0.00
2019-02-15T04:17:00.876Z,0.00
2019-02-15T04:18:00.921Z,0.00
2019-02-15T04:19:00.970Z,0.00
2019-02-15T04:20:01.010Z,0.00
2019-02-15T04:21:01.057Z,0.00
2019-02-15T04:22:01.064Z,0.00
2019-02-15T04:23:01.128Z,0.00
2019-02-15T04:24:01.146Z,0.00
2019-02-15T04:25:01.223Z,0.00
2019-02-15T04:26:01.210Z,0.00
2019-02-15T04:27:01.251Z,0.00
2019-02-15T04:28:01.289Z,0.00
2019-02-15T04:29:01.343Z,0.00
2019-02-15T04:30:01.437Z,0.00
2019-02-15T04:31:01.400Z,0.00
2019-02-15T04:32:01.448Z,0.00
2019-02-15T04:33:01.479Z,0.00
2019-02-15T04:34:01.516Z,0.00
2019-02-15T04:35:01.603Z,0.00
2019-02-15T04:36:01.582Z,0.00
2019-02-15T04:37:01.624Z,0.00
2019-02-15T04:38:01.661Z,0.00
2019-02-15T04:39:01.706Z,0.00
2019-02-15T04:40:01.755Z,0.00
2019-02-15T04:41:01.772Z,0.00
2019-02-15T04:42:01.823Z,0.00
2019-02-15T04:43:01.850Z,0.00
2019-02-15T04:44:01.885Z,0.00
2019-02-15T04:45:01.963Z,0.00
2019-02-15T04:46:02.289Z,0.00
2019-02-15T04:47:01.995Z,0.00
2019-02-15T04:48:02.031Z,0.00
2019-02-15T04:49:02.070Z,0.00
2019-02-15T04:50:02.109Z,0.00
2019-02-15T04:51:02.175Z,0.00
2019-02-15T04:52:02.183Z,0.00
2019-02-15T04:53:03.070Z,0.00
2019-02-15T04:54:02.256Z,0.00
2019-02-15T04:55:02.294Z,0.00
2019-02-15T04:56:02.368Z,0.00
2019-02-15T04:57:02.386Z,0.00
2019-02-15T04:58:02.410Z,0.00
2019-02-15T04:59:02.441Z,0.00
2019-02-15T05:00:02.478Z,0.00
2019-02-15T05:01:02.539Z,0.00
2019-02-15T05:02:02.553Z,0.00
2019-02-15T05:03:02.602Z,0.00
2019-02-15T05:04:02.628Z,0.00
2019-02-15T05:05:02.663Z,0.00
2019-02-15T05:06:02.720Z,0.00
2019-02-15T05:07:02.763Z,0.00
2019-02-15T05:08:02.779Z,0.00
2019-02-15T05:09:02.814Z,0.00
2019-02-15T05:10:02.855Z,0.00
2019-02-15T05:11:02.893Z,0.00
2019-02-15T05:12:03.057Z,0.00
2019-02-15T05:13:02.967Z,0.00
2019-02-15T05:14:02.999Z,0.00
2019-02-15T05:15:03.038Z,0.00
2019-02-15T05:16:03.072Z,0.00
2019-02-15T05:17:03.137Z,0.00
2019-02-15T05:18:03.154Z,0.00
2019-02-15T05:19:03.250Z,0.00
2019-02-15T05:20:03.230Z,0.00
2019-02-15T05:21:03.259Z,0.00
2019-02-15T05:22:03.314Z,0.00
2019-02-15T05:23:03.335Z,0.00
2019-02-15T05:24:03.387Z,0.00
2019-02-15T05:25:03.407Z,0.00
2019-02-15T05:26:03.545Z,0.00
2019-02-15T05:27:03.513Z,0.00
2019-02-15T05:28:03.528Z,0.00
2019-02-15T05:29:03.572Z,0.00
2019-02-15T05:30:03.597Z,0.00
2019-02-15T05:31:03.640Z,0.00
2019-02-15T05:32:03.704Z,0.00
2019-02-15T05:33:03.776Z,0.00
2019-02-15T05:34:03.743Z,0.00
2019-02-15T05:35:03.779Z,0.00
2019-02-15T05:36:03.815Z,0.00
2019-02-15T05:37:03.883Z,0.00
2019-02-15T05:38:03.891Z,0.00
2019-02-15T05:39:03.926Z,0.00
2019-02-15T05:40:04.006Z,0.00
2019-02-15T05:41:04.002Z,0.00
2019-02-15T05:42:04.076Z,0.00
2019-02-15T05:43:04.082Z,0.00
2019-02-15T05:44:04.131Z,0.00
2019-02-15T05:45:04.725Z,0.00
2019-02-15T05:46:04.189Z,0.00
2019-02-15T05:47:04.270Z,0.00
2019-02-15T05:48:04.268Z,0.00
2019-02-15T05:49:04.297Z,0.00
2019-02-15T05:50:04.337Z,0.00
2019-02-15T05:51:04.375Z,0.00
2019-02-15T05:52:04.432Z,0.00
2019-02-15T05:53:04.465Z,0.00
2019-02-15T05:54:04.484Z,0.00
2019-02-15T05:55:04.524Z,0.00
2019-02-15T05:56:04.556Z,0.00
2019-02-15T05:57:04.603Z,0.00
2019-02-15T05:58:04.654Z,4.00
2019-02-15T05:59:04.669Z,4.00
2019-02-15T06:00:04.708Z,4.00
2019-02-15T06:01:04.745Z,4.00
2019-02-15T06:02:04.787Z,4.00
2019-02-15T06:03:04.862Z,4.00
2019-02-15T06:04:04.851Z,4.00
2019-02-15T06:05:04.891Z,8.00
2019-02-15T06:06:04.935Z,8.00
2019-02-15T06:07:04.974Z,12.00
2019-02-15T06:08:05.023Z,12.00
2019-02-15T06:09:05.062Z,16.00
2019-02-15T06:10:05.083Z,16.00
2019-02-15T06:11:07.809Z,24.00
2019-02-15T06:12:05.154Z,28.00
2019-02-15T06:13:05.206Z,32.00
2019-02-15T06:14:05.264Z,36.00
2019-02-15T06:15:14.827Z,44.00
2019-02-15T06:16:05.298Z,56.00
2019-02-15T06:17:05.342Z,64.00
2019-02-15T06:18:05.374Z,76.00
2019-02-15T06:19:05.459Z,84.00
2019-02-15T06:20:05.504Z,100.00
2019-02-15T06:21:05.480Z,116.00
2019-02-15T06:22:05.520Z,136.00
2019-02-15T06:23:05.563Z,156.00
2019-02-15T06:24:05.620Z,176.00
2019-02-15T06:25:05.637Z,200.00
2019-02-15T06:26:05.667Z,224.00
2019-02-15T06:27:05.717Z,252.00
2019-02-15T06:28:05.744Z,280.00
2019-02-15T06:29:05.806Z,308.00
2019-02-15T06:30:05.815Z,344.00
2019-02-15T06:31:05.856Z,372.00
2019-02-15T06:32:05.895Z,408.00
2019-02-15T06:33:05.926Z,436.00
2019-02-15T06:34:05.984Z,472.00
2019-02-15T06:35:06.013Z,508.00
2019-02-15T06:36:06.053Z,544.00
2019-02-15T06:37:06.072Z,584.00
2019-02-15T06:38:06.128Z,624.00
2019-02-15T06:39:06.182Z,664.00
2019-02-15T06:40:06.183Z,700.00
2019-02-15T06:41:06.228Z,748.00
2019-02-15T06:42:06.260Z,792.00
2019-02-15T06:43:06.298Z,848.00
2019-02-15T06:44:06.387Z,904.00
2019-02-15T06:45:06.405Z,952.00
2019-02-15T06:46:06.418Z,1004.00
2019-02-15T06:47:06.462Z,1048.00
2019-02-15T06:48:06.509Z,1096.00
2019-02-15T06:49:06.546Z,1136.00
2019-02-15T06:50:06.581Z,1184.00
2019-02-15T06:51:06.609Z,1224.00
2019-02-15T06:52:06.633Z,1268.00
2019-02-15T06:53:06.670Z,1312.00
2019-02-15T06:54:18.293Z,1356.00
2019-02-15T06:55:06.761Z,1396.00
2019-02-15T06:56:06.803Z,1440.00
2019-02-15T06:57:06.824Z,1480.00
2019-02-15T06:58:06.850Z,1520.00
2019-02-15T06:59:06.965Z,1572.00
2019-02-15T07:00:06.962Z,1620.00
2019-02-15T07:01:06.967Z,1660.00
2019-02-15T07:02:07.008Z,1700.00
2019-02-15T07:03:07.039Z,1760.00
2019-02-15T07:04:07.075Z,1804.00
2019-02-15T07:05:07.140Z,1836.00
2019-02-15T07:06:07.188Z,1880.00
2019-02-15T07:07:07.194Z,1924.00
2019-02-15T07:08:07.229Z,1988.00
2019-02-15T07:09:07.261Z,2016.00
2019-02-15T07:10:07.301Z,2216.00
2019-02-15T07:11:07.357Z,2240.00
2019-02-15T07:12:07.381Z,2176.00
2019-02-15T07:13:07.446Z,2392.00
2019-02-15T07:14:07.456Z,2380.00
2019-02-15T07:15:07.535Z,2412.00
2019-02-15T07:16:07.549Z,3004.00
2019-02-15T07:17:07.558Z,3892.00
2019-02-15T07:18:07.606Z,3652.00
2019-02-15T07:19:07.639Z,3328.00
2019-02-15T07:20:07.732Z,3332.00
2019-02-15T07:21:07.747Z,3284.00
2019-02-15T07:22:07.749Z,3048.00
2019-02-15T07:23:07.788Z,3356.00
2019-02-15T07:24:07.832Z,3776.00
2019-02-15T07:25:07.878Z,3600.00
2019-02-15T07:26:07.916Z,3456.00
2019-02-15T07:27:07.946Z,3368.00
2019-02-15T07:28:08.044Z,3124.00
2019-02-15T07:29:08.015Z,3112.00
2019-02-15T07:30:08.059Z,3780.00
2019-02-15T07:31:08.119Z,4988.00
2019-02-15T07:32:08.144Z,4728.00
2019-02-15T07:33:08.167Z,3532.00
2019-02-15T07:34:08.206Z,3000.00
2019-02-15T07:35:08.250Z,2988.00
2019-02-15T07:36:08.292Z,3060.00
2019-02-15T07:37:08.337Z,3076.00
2019-02-15T07:38:08.363Z,3416.00
2019-02-15T07:39:08.414Z,4972.00
2019-02-15T07:40:08.434Z,7300.00
2019-02-15T07:41:08.480Z,8584.00
2019-02-15T07:42:08.531Z,8744.00
2019-02-15T07:43:08.555Z,9084.00
2019-02-15T07:44:08.594Z,9540.00
2019-02-15T07:45:08.674Z,10212.00
2019-02-15T07:46:08.677Z,10520.00
2019-02-15T07:47:08.737Z,10348.00
2019-02-15T07:48:08.753Z,9864.00
2019-02-15T07:49:08.797Z,10236.00
2019-02-15T07:50:08.831Z,10892.00
2019-02-15T07:51:09.926Z,11020.00
2019-02-15T07:52:08.937Z,11660.00
2019-02-15T07:53:09.206Z,13728.00
2019-02-15T07:54:08.994Z,14144.00
2019-02-15T07:55:09.045Z,14400.00
2019-02-15T07:56:09.152Z,15264.00
2019-02-15T07:57:09.119Z,14944.00
2019-02-15T07:58:09.178Z,15584.00
2019-02-15T07:59:09.213Z,15680.00
2019-02-15T08:00:09.249Z,14592.00
2019-02-15T08:01:09.303Z,13952.00
2019-02-15T08:02:09.337Z,14272.00
2019-02-15T08:03:09.396Z,14080.00
2019-02-15T08:04:09.428Z,14592.00
2019-02-15T08:05:09.468Z,14368.00
2019-02-15T08:06:09.508Z,14816.00
2019-02-15T08:07:09.558Z,15840.00
2019-02-15T08:08:09.628Z,15872.00
2019-02-15T08:09:10.763Z,16096.00
2019-02-15T08:10:09.697Z,16576.00
2019-02-15T08:11:09.737Z,17024.00
2019-02-15T08:12:09.778Z,17376.00
2019-02-15T08:13:09.859Z,17728.00
2019-02-15T08:14:14.840Z,18048.00
2019-02-15T08:15:09.911Z,18080.00
2019-02-15T08:16:09.967Z,18432.00
2019-02-15T08:17:10.020Z,19200.00
2019-02-15T08:18:10.204Z,19200.00
2019-02-15T08:19:10.096Z,18944.00
2019-02-15T08:20:10.140Z,19360.00
2019-02-15T08:21:10.205Z,19232.00
2019-02-15T08:22:10.240Z,20000.00
2019-02-15T08:23:10.308Z,21344.00
2019-02-15T08:24:10.328Z,20736.00
2019-02-15T08:25:10.382Z,21760.00
2019-02-15T08:26:10.421Z,22880.00
2019-02-15T08:27:10.480Z,22112.00
2019-02-15T08:28:10.549Z,22176.00
2019-02-15T08:29:10.705Z,22912.00
2019-02-15T08:30:10.618Z,22208.00
2019-02-15T08:31:10.654Z,22464.00
2019-02-15T08:32:10.703Z,23648.00
2019-02-15T08:33:10.765Z,23936.00
2019-02-15T08:34:10.954Z,23808.00
2019-02-15T08:35:10.847Z,24000.00
2019-02-15T08:36:10.891Z,26144.00
2019-02-15T08:37:10.942Z,26016.00
2019-02-15T08:38:10.985Z,25664.00
2019-02-15T08:39:11.070Z,26464.00
2019-02-15T08:40:11.082Z,27072.00
2019-02-15T08:41:11.137Z,26176.00
2019-02-15T08:42:11.183Z,26208.00
2019-02-15T08:43:11.227Z,27360.00
2019-02-15T08:44:11.303Z,26976.00
2019-02-15T08:45:11.335Z,25760.00
2019-02-15T08:46:11.371Z,26880.00
2019-02-15T08:47:11.424Z,28736.00
2019-02-15T08:48:11.464Z,28128.00
2019-02-15T08:49:11.540Z,27488.00
2019-02-15T08:50:11.571Z,28992.00
2019-02-15T08:51:11.639Z,30688.00
2019-02-15T08:52:11.659Z,30752.00
2019-02-15T08:53:11.702Z,30944.00
2019-02-15T08:54:11.789Z,31488.00
2019-02-15T08:55:11.800Z,31616.00
2019-02-15T08:56:11.848Z,31872.00
2019-02-15T08:57:11.895Z,32192.00
2019-02-15T08:58:11.950Z,31680.00
2019-02-15T08:59:12.011Z,31360.00
2019-02-15T09:00:12.068Z,31392.00
2019-02-15T09:01:12.091Z,32576.00
2019-02-15T09:02:12.155Z,33376.00
2019-02-15T09:03:12.190Z,33920.00
2019-02-15T09:04:12.245Z,34080.00
2019-02-15T09:05:12.310Z,33504.00
2019-02-15T09:06:12.338Z,34656.00
2019-02-15T09:07:12.384Z,36128.00
2019-02-15T09:08:12.433Z,35424.00
2019-02-15T09:09:12.495Z,34272.00
2019-02-15T09:10:12.561Z,35008.00
2019-02-15T09:11:12.580Z,36032.00
2019-02-15T09:12:12.643Z,36896.00
2019-02-15T09:13:12.674Z,37760.00
2019-02-15T09:14:12.723Z,37088.00
2019-02-15T09:15:12.810Z,34080.00
2019-02-15T09:16:12.826Z,33824.00
2019-02-15T09:17:12.870Z,37952.00
2019-02-15T09:18:12.919Z,38304.00
2019-02-15T09:19:12.979Z,39200.00
2019-02-15T09:20:13.043Z,39904.00
2019-02-15T09:21:13.188Z,39296.00
2019-02-15T09:22:13.124Z,38688.00
2019-02-15T09:23:13.168Z,38624.00
2019-02-15T09:24:13.217Z,39776.00
2019-02-15T09:25:13.272Z,41920.00
2019-02-15T09:26:18.273Z,43360.00
2019-02-15T09:27:14.288Z,42784.00
2019-02-15T09:28:13.510Z,42368.00
2019-02-15T09:29:13.477Z,43136.00
2019-02-15T09:30:13.530Z,45152.00
2019-02-15T09:31:13.585Z,46080.00
2019-02-15T09:32:13.614Z,45760.00
2019-02-15T09:33:13.669Z,45952.00
2019-02-15T09:34:13.712Z,46752.00
2019-02-15T09:35:13.850Z,46592.00
2019-02-15T09:36:13.842Z,45664.00
2019-02-15T09:37:13.859Z,47296.00
2019-02-15T09:38:13.916Z,49920.00
2019-02-15T09:39:13.959Z,48928.00
2019-02-15T09:40:14.003Z,44160.00
2019-02-15T09:41:14.075Z,42368.00
2019-02-15T09:42:14.151Z,45088.00
2019-02-15T09:43:14.157Z,46176.00
2019-02-15T09:44:14.200Z,45120.00
2019-02-15T09:45:14.254Z,45920.00
2019-02-15T09:46:20.090Z,48352.00
2019-02-15T09:47:14.349Z,49056.00
2019-02-15T09:48:14.409Z,47360.00
2019-02-15T09:49:14.448Z,46688.00
2019-02-15T09:50:14.514Z,48672.00
2019-02-15T09:51:14.570Z,50304.00
2019-02-15T09:52:14.608Z,51072.00
2019-02-15T09:53:14.644Z,49504.00
2019-02-15T09:54:14.704Z,48416.00
2019-02-15T09:55:14.743Z,49408.00
2019-02-15T09:56:14.821Z,51104.00
2019-02-15T09:57:14.853Z,51648.00
2019-02-15T09:58:16.498Z,49568.00
2019-02-15T09:59:14.950Z,47264.00
2019-02-15T10:00:14.990Z,46336.00
2019-02-15T10:01:15.063Z,47840.00
2019-02-15T10:02:15.116Z,51104.00
2019-02-15T10:03:15.138Z,53088.00
2019-02-15T10:04:15.185Z,52256.00
2019-02-15T10:05:15.234Z,51040.00
2019-02-15T10:06:15.285Z,50912.00
2019-02-15T10:07:15.369Z,50976.00
2019-02-15T10:08:15.382Z,51904.00
2019-02-15T10:09:15.433Z,52864.00
2019-02-15T10:10:15.481Z,54208.00
2019-02-15T10:11:15.580Z,55008.00
2019-02-15T10:12:15.599Z,54304.00
2019-02-15T10:13:15.683Z,53536.00
2019-02-15T10:14:15.683Z,54080.00
2019-02-15T10:15:15.734Z,55264.00
2019-02-15T10:16:15.778Z,55680.00
2019-02-15T10:17:15.827Z,53856.00
2019-02-15T10:18:15.902Z,51872.00
2019-02-15T10:19:22.230Z,50496.00
2019-02-15T10:20:15.978Z,51328.00
2019-02-15T10:21:16.027Z,54464.00
2019-02-15T10:22:16.184Z,55936.00
2019-02-15T10:23:16.149Z,54976.00
2019-02-15T10:24:16.178Z,53472.00
2019-02-15T10:25:16.227Z,52928.00
2019-02-15T10:26:16.274Z,55168.00
2019-02-15T10:27:16.335Z,58400.00
2019-02-15T10:28:16.398Z,60416.00
2019-02-15T10:29:16.433Z,60928.00
2019-02-15T10:30:16.489Z,59168.00
2019-02-15T10:31:16.604Z,57376.00
2019-02-15T10:32:16.581Z,55456.00
2019-02-15T10:33:16.669Z,55296.00
2019-02-15T10:34:16.689Z,57824.00
2019-02-15T10:35:16.731Z,58528.00
2019-02-15T10:36:18.822Z,58592.00
2019-02-15T10:37:16.845Z,57152.00
2019-02-15T10:38:16.910Z,56512.00
2019-02-15T10:39:16.940Z,58048.00
2019-02-15T10:40:16.981Z,61408.00
2019-02-15T10:41:17.044Z,62208.00
2019-02-15T10:42:17.100Z,59072.00
2019-02-15T10:43:17.159Z,56992.00
2019-02-15T10:44:17.206Z,58752.00
2019-02-15T10:45:17.250Z,61760.00
2019-02-15T10:46:17.304Z,61984.00
2019-02-15T10:47:24.651Z,61504.00
2019-02-15T10:48:17.392Z,60896.00
2019-02-15T10:49:17.622Z,60352.00
2019-02-15T10:50:17.495Z,59712.00
2019-02-15T10:51:17.545Z,58240.00
2019-02-15T10:52:17.597Z,56960.00
2019-02-15T10:53:17.652Z,56800.00
2019-02-15T10:54:17.723Z,56512.00
2019-02-15T10:55:17.748Z,56480.00
2019-02-15T10:56:17.859Z,55136.00
2019-02-15T10:57:17.848Z,55616.00
2019-02-15T10:58:17.900Z,59328.00
2019-02-15T10:59:17.988Z,62368.00
2019-02-15T11:00:18.010Z,62848.00
2019-02-15T11:01:18.060Z,61568.00
2019-02-15T11:02:18.104Z,58752.00
2019-02-15T11:03:18.157Z,56000.00
2019-02-15T11:04:18.232Z,54784.00
2019-02-15T11:05:18.270Z,56704.00
2019-02-15T11:06:18.315Z,60384.00
2019-02-15T11:07:18.368Z,63520.00
2019-02-15T11:08:18.406Z,63072.00
2019-02-15T11:09:18.455Z,62144.00
2019-02-15T11:10:18.539Z,61504.00
2019-02-15T11:11:18.560Z,60800.00
2019-02-15T11:12:18.626Z,61920.00
2019-02-15T11:13:18.656Z,61280.00
2019-02-15T11:14:18.802Z,58976.00
2019-02-15T11:15:18.790Z,57792.00
2019-02-15T11:16:18.810Z,61056.00
2019-02-15T11:17:18.858Z,63872.00
2019-02-15T11:18:18.911Z,63008.00
2019-02-15T11:19:18.971Z,59808.00
2019-02-15T11:20:19.039Z,56448.00
2019-02-15T11:21:19.091Z,57248.00
2019-02-15T11:22:19.114Z,60256.00
2019-02-15T11:23:19.175Z,64000.00
2019-02-15T11:24:19.232Z,64512.00
2019-02-15T11:25:19.300Z,61440.00
2019-02-15T11:26:24.788Z,59712.00
2019-02-15T11:27:19.375Z,59552.00
2019-02-15T11:28:19.479Z,60160.00
2019-02-15T11:29:19.467Z,60000.00
2019-02-15T11:30:19.549Z,60160.00
2019-02-15T11:31:19.577Z,58848.00
2019-02-15T11:32:19.635Z,58592.00
2019-02-15T11:33:19.680Z,60576.00
2019-02-15T11:34:19.719Z,62304.00
2019-02-15T11:35:19.799Z,61824.00
2019-02-15T11:36:19.882Z,61056.00
2019-02-15T11:37:19.871Z,59776.00
2019-02-15T11:38:19.974Z,59072.00
2019-02-15T11:39:19.979Z,61184.00
2019-02-15T11:40:20.067Z,63328.00
2019-02-15T11:41:20.086Z,62208.00
2019-02-15T11:42:20.120Z,57920.00
2019-02-15T11:43:20.184Z,54624.00
2019-02-15T11:44:20.229Z,54592.00
2019-02-15T11:45:20.295Z,57504.00
2019-02-15T11:46:20.343Z,58688.00
2019-02-15T11:47:20.372Z,57856.00
2019-02-15T11:48:20.430Z,56128.00
2019-02-15T11:49:20.468Z,56896.00
2019-02-15T11:50:20.522Z,58592.00
2019-02-15T11:51:20.599Z,61760.00
2019-02-15T11:52:20.628Z,61568.00
2019-02-15T11:53:20.676Z,60352.00
2019-02-15T11:54:23.616Z,58048.00
2019-02-15T11:55:20.783Z,58176.00
2019-02-15T11:56:20.854Z,58848.00
2019-02-15T11:57:20.871Z,58944.00
2019-02-15T11:58:20.926Z,59456.00
2019-02-15T11:59:20.976Z,58848.00
2019-02-15T12:00:23.075Z,56736.00
2019-02-15T12:01:21.110Z,56096.00
2019-02-15T12:02:21.124Z,55808.00
2019-02-15T12:03:21.178Z,56768.00
2019-02-15T12:04:21.231Z,58656.00
2019-02-15T12:05:21.276Z,59744.00
2019-02-15T12:06:21.348Z,59552.00
2019-02-15T12:07:21.379Z,57472.00
2019-02-15T12:08:21.434Z,56736.00
2019-02-15T12:09:21.478Z,58304.00
2019-02-15T12:10:21.629Z,59008.00
2019-02-15T12:11:21.609Z,58368.00
2019-02-15T12:12:21.635Z,54368.00
2019-02-15T12:13:21.693Z,52608.00
2019-02-15T12:14:21.737Z,51840.00
2019-02-15T12:15:21.794Z,52896.00
2019-02-15T12:16:21.865Z,53440.00
2019-02-15T12:17:21.881Z,53056.00
2019-02-15T12:18:21.928Z,52512.00
2019-02-15T12:19:21.981Z,52832.00
2019-02-15T12:20:22.028Z,55584.00
2019-02-15T12:21:22.243Z,58048.00
2019-02-15T12:22:22.156Z,57152.00
2019-02-15T12:23:22.185Z,54176.00
2019-02-15T12:24:22.239Z,51936.00
2019-02-15T12:25:22.289Z,52512.00
2019-02-15T12:26:22.369Z,54496.00
2019-02-15T12:27:22.386Z,54816.00
2019-02-15T12:28:22.468Z,53600.00
2019-02-15T12:29:22.483Z,53088.00
2019-02-15T12:30:23.352Z,52736.00
2019-02-15T12:31:22.621Z,53536.00
2019-02-15T12:32:22.653Z,53568.00